sensor_id;sensor_type;location;lat;lon;timestamp;temperature;humidity
19232;DHT22;9750;48.730;10.294;2023-05-10T00:01:13;15.70;99.90
19232;DHT22;9750;48.730;10.294;2023-05-10T00:03:40;15.70;99.90
19232;DHT22;9750;48.730;10.294;2023-05-10T00:06:08;15.70;99.90
19232;DHT22;9750;48.730;10.294;2023-05-10T00:08:35;15.70;99.90
19232;DHT22;9750;48.730;10.294;2023-05-10T00:11:02;15.70;99.90
19232;DHT22;9750;48.730;10.294;2023-05-10T00:13:29;15.60;99.90
19232;DHT22;9750;48.730;10.294;2023-05-10T00:15:58;15.60;99.90
19232;DHT22;9750;48.730;10.294;2023-05-10T00:18:25;15.60;99.90
19232;DHT22;9750;48.730;10.294;2023-05-10T00:20:52;15.60;99.90
19232;DHT22;9750;48.730;10.294;2023-05-10T00:23:20;15.60;99.90
19232;DHT22;9750;48.730;10.294;2023-05-10T00:25:47;15.60;99.90
19232;DHT22;9750;48.730;10.294;2023-05-10T00:28:36;15.60;99.90
19232;DHT22;9750;48.730;10.294;2023-05-10T00:31:05;15.60;99.90
19232;DHT22;9750;48.730;10.294;2023-05-10T00:33:32;15.50;99.90
19232;DHT22;9750;48.730;10.294;2023-05-10T00:35:59;15.50;99.90
19232;DHT22;9750;48.730;10.294;2023-05-10T00:38:26;15.50;99.90
19232;DHT22;9750;48.730;10.294;2023-05-10T00:40:53;15.50;99.90
19232;DHT22;9750;48.730;10.294;2023-05-10T00:43:21;15.50;99.90
19232;DHT22;9750;48.730;10.294;2023-05-10T00:45:48;15.50;99.90
19232;DHT22;9750;48.730;10.294;2023-05-10T00:48:29;15.50;99.90
19232;DHT22;9750;48.730;10.294;2023-05-10T00:50:56;15.40;99.90
19232;DHT22;9750;48.730;10.294;2023-05-10T00:53:24;15.40;99.90
19232;DHT22;9750;48.730;10.294;2023-05-10T00:55:51;15.40;99.90
19232;DHT22;9750;48.730;10.294;2023-05-10T00:58:40;15.40;99.90
19232;DHT22;9750;48.730;10.294;2023-05-10T01:01:08;15.40;99.90
19232;DHT22;9750;48.730;10.294;2023-05-10T01:03:37;15.40;99.90
19232;DHT22;9750;48.730;10.294;2023-05-10T01:06:07;15.40;99.90
19232;DHT22;9750;48.730;10.294;2023-05-10T01:08:35;15.40;99.90
19232;DHT22;9750;48.730;10.294;2023-05-10T01:11:03;15.40;99.90
19232;DHT22;9750;48.730;10.294;2023-05-10T01:13:33;15.40;99.90
19232;DHT22;9750;48.730;10.294;2023-05-10T01:16:01;15.30;99.90
19232;DHT22;9750;48.730;10.294;2023-05-10T01:18:29;15.30;99.90
19232;DHT22;9750;48.730;10.294;2023-05-10T01:21:08;15.20;99.90
19232;DHT22;9750;48.730;10.294;2023-05-10T01:24:26;15.20;99.90
19232;DHT22;9750;48.730;10.294;2023-05-10T01:27:32;15.10;99.90
19232;DHT22;9750;48.730;10.294;2023-05-10T01:33:16;15.10;99.90
19232;DHT22;9750;48.730;10.294;2023-05-10T01:35:50;15.10;99.90
19232;DHT22;9750;48.730;10.294;2023-05-10T01:38:26;15.10;99.90
19232;DHT22;9750;48.730;10.294;2023-05-10T01:41:08;15.10;99.90
19232;DHT22;9750;48.730;10.294;2023-05-10T01:43:50;15.10;99.90
19232;DHT22;9750;48.730;10.294;2023-05-10T01:46:26;15.10;99.90
19232;DHT22;9750;48.730;10.294;2023-05-10T01:48:58;15.10;99.90
19232;DHT22;9750;48.730;10.294;2023-05-10T01:51:29;15.00;99.90
19232;DHT22;9750;48.730;10.294;2023-05-10T01:54:01;15.00;99.90
19232;DHT22;9750;48.730;10.294;2023-05-10T01:56:31;15.00;99.90
19232;DHT22;9750;48.730;10.294;2023-05-10T01:59:00;14.90;99.90
19232;DHT22;9750;48.730;10.294;2023-05-10T02:01:33;14.90;99.90
19232;DHT22;9750;48.730;10.294;2023-05-10T02:04:06;14.90;99.90
19232;DHT22;9750;48.730;10.294;2023-05-10T02:06:35;14.90;99.90
19232;DHT22;9750;48.730;10.294;2023-05-10T02:09:05;14.80;99.90
19232;DHT22;9750;48.730;10.294;2023-05-10T02:11:33;14.80;99.90
19232;DHT22;9750;48.730;10.294;2023-05-10T02:14:01;14.70;99.90
19232;DHT22;9750;48.730;10.294;2023-05-10T02:16:29;14.70;99.90
19232;DHT22;9750;48.730;10.294;2023-05-10T02:18:59;14.60;99.90
19232;DHT22;9750;48.730;10.294;2023-05-10T02:21:29;14.60;99.90
19232;DHT22;9750;48.730;10.294;2023-05-10T02:23:59;14.50;99.90
19232;DHT22;9750;48.730;10.294;2023-05-10T02:26:28;14.50;99.90
19232;DHT22;9750;48.730;10.294;2023-05-10T02:28:56;14.40;99.90
19232;DHT22;9750;48.730;10.294;2023-05-10T02:31:24;14.30;99.90
19232;DHT22;9750;48.730;10.294;2023-05-10T02:33:53;14.30;99.90
19232;DHT22;9750;48.730;10.294;2023-05-10T02:36:21;14.20;99.90
19232;DHT22;9750;48.730;10.294;2023-05-10T02:38:52;14.20;99.90
19232;DHT22;9750;48.730;10.294;2023-05-10T02:41:20;14.10;99.90
19232;DHT22;9750;48.730;10.294;2023-05-10T02:43:50;14.10;99.90
19232;DHT22;9750;48.730;10.294;2023-05-10T02:46:18;14.00;99.90
19232;DHT22;9750;48.730;10.294;2023-05-10T02:48:45;14.00;99.90
19232;DHT22;9750;48.730;10.294;2023-05-10T02:51:14;13.90;99.90
19232;DHT22;9750;48.730;10.294;2023-05-10T02:53:45;13.90;99.90
19232;DHT22;9750;48.730;10.294;2023-05-10T02:56:23;13.90;99.90
19232;DHT22;9750;48.730;10.294;2023-05-10T02:58:52;13.90;99.90
19232;DHT22;9750;48.730;10.294;2023-05-10T03:01:19;13.80;99.90
19232;DHT22;9750;48.730;10.294;2023-05-10T03:03:47;13.80;99.90
19232;DHT22;9750;48.730;10.294;2023-05-10T03:06:14;13.70;99.90
19232;DHT22;9750;48.730;10.294;2023-05-10T03:08:42;13.70;99.90
19232;DHT22;9750;48.730;10.294;2023-05-10T03:11:21;13.60;99.90
19232;DHT22;9750;48.730;10.294;2023-05-10T03:14:01;13.50;99.90
19232;DHT22;9750;48.730;10.294;2023-05-10T03:16:36;13.40;99.90
19232;DHT22;9750;48.730;10.294;2023-05-10T03:19:14;13.40;99.90
19232;DHT22;9750;48.730;10.294;2023-05-10T03:21:47;13.30;99.90
19232;DHT22;9750;48.730;10.294;2023-05-10T03:24:16;13.30;99.90
19232;DHT22;9750;48.730;10.294;2023-05-10T03:26:47;13.20;99.90
19232;DHT22;9750;48.730;10.294;2023-05-10T03:29:16;13.20;99.90
19232;DHT22;9750;48.730;10.294;2023-05-10T03:31:44;13.20;99.90
19232;DHT22;9750;48.730;10.294;2023-05-10T03:34:11;13.20;99.90
19232;DHT22;9750;48.730;10.294;2023-05-10T03:36:38;13.20;99.90
19232;DHT22;9750;48.730;10.294;2023-05-10T03:39:05;13.10;99.90
19232;DHT22;9750;48.730;10.294;2023-05-10T03:41:33;13.10;99.90
19232;DHT22;9750;48.730;10.294;2023-05-10T03:44:01;13.10;99.90
19232;DHT22;9750;48.730;10.294;2023-05-10T03:46:29;13.10;99.90
19232;DHT22;9750;48.730;10.294;2023-05-10T03:48:56;13.00;99.90
19232;DHT22;9750;48.730;10.294;2023-05-10T03:51:23;13.00;99.90
19232;DHT22;9750;48.730;10.294;2023-05-10T03:53:53;13.00;99.90
19232;DHT22;9750;48.730;10.294;2023-05-10T03:56:21;13.00;99.90
19232;DHT22;9750;48.730;10.294;2023-05-10T03:58:48;13.00;99.90
19232;DHT22;9750;48.730;10.294;2023-05-10T04:01:17;13.00;99.90
19232;DHT22;9750;48.730;10.294;2023-05-10T04:03:44;13.00;99.90
19232;DHT22;9750;48.730;10.294;2023-05-10T04:06:11;13.00;99.90
19232;DHT22;9750;48.730;10.294;2023-05-10T04:08:43;12.90;99.90
19232;DHT22;9750;48.730;10.294;2023-05-10T04:11:13;12.90;99.90
19232;DHT22;9750;48.730;10.294;2023-05-10T04:13:41;12.80;99.90
19232;DHT22;9750;48.730;10.294;2023-05-10T04:16:09;12.80;99.90
19232;DHT22;9750;48.730;10.294;2023-05-10T04:18:37;12.80;99.90
19232;DHT22;9750;48.730;10.294;2023-05-10T04:21:11;12.90;99.90
19232;DHT22;9750;48.730;10.294;2023-05-10T04:23:38;12.90;99.90
19232;DHT22;9750;48.730;10.294;2023-05-10T04:26:16;12.90;99.90
19232;DHT22;9750;48.730;10.294;2023-05-10T04:29:04;12.90;99.90
19232;DHT22;9750;48.730;10.294;2023-05-10T04:31:33;12.90;99.90
19232;DHT22;9750;48.730;10.294;2023-05-10T04:34:08;13.00;99.90
19232;DHT22;9750;48.730;10.294;2023-05-10T04:36:35;12.90;99.90
19232;DHT22;9750;48.730;10.294;2023-05-10T04:57:45;13.00;99.90
19232;DHT22;9750;48.730;10.294;2023-05-10T05:00:13;13.00;99.90
19232;DHT22;9750;48.730;10.294;2023-05-10T05:02:42;13.00;99.90
19232;DHT22;9750;48.730;10.294;2023-05-10T05:05:10;13.00;99.90
19232;DHT22;9750;48.730;10.294;2023-05-10T05:07:38;13.10;99.90
19232;DHT22;9750;48.730;10.294;2023-05-10T05:10:06;13.10;99.90
19232;DHT22;9750;48.730;10.294;2023-05-10T05:12:34;13.20;99.90
19232;DHT22;9750;48.730;10.294;2023-05-10T05:15:03;13.20;99.90
19232;DHT22;9750;48.730;10.294;2023-05-10T05:17:30;13.20;99.90
19232;DHT22;9750;48.730;10.294;2023-05-10T05:19:58;13.20;99.90
19232;DHT22;9750;48.730;10.294;2023-05-10T05:22:25;13.20;99.90
19232;DHT22;9750;48.730;10.294;2023-05-10T05:24:53;13.30;99.90
19232;DHT22;9750;48.730;10.294;2023-05-10T05:27:23;13.40;99.90
19232;DHT22;9750;48.730;10.294;2023-05-10T05:29:52;13.40;99.90
19232;DHT22;9750;48.730;10.294;2023-05-10T05:32:21;13.40;99.90
19232;DHT22;9750;48.730;10.294;2023-05-10T05:34:54;13.50;99.90
19232;DHT22;9750;48.730;10.294;2023-05-10T05:37:25;13.50;99.90
19232;DHT22;9750;48.730;10.294;2023-05-10T05:40:00;13.50;99.90
19232;DHT22;9750;48.730;10.294;2023-05-10T05:42:44;13.60;99.90
19232;DHT22;9750;48.730;10.294;2023-05-10T05:45:11;13.60;99.90
19232;DHT22;9750;48.730;10.294;2023-05-10T05:47:41;13.70;99.90
19232;DHT22;9750;48.730;10.294;2023-05-10T05:50:09;13.70;99.90
19232;DHT22;9750;48.730;10.294;2023-05-10T05:52:39;13.70;99.90
19232;DHT22;9750;48.730;10.294;2023-05-10T05:55:12;13.80;99.90
19232;DHT22;9750;48.730;10.294;2023-05-10T05:57:43;13.80;99.90
19232;DHT22;9750;48.730;10.294;2023-05-10T06:00:11;13.80;99.90
19232;DHT22;9750;48.730;10.294;2023-05-10T06:02:38;13.80;99.90
19232;DHT22;9750;48.730;10.294;2023-05-10T06:05:08;13.80;99.90
19232;DHT22;9750;48.730;10.294;2023-05-10T06:07:35;13.80;99.90
19232;DHT22;9750;48.730;10.294;2023-05-10T06:10:03;13.80;99.90
19232;DHT22;9750;48.730;10.294;2023-05-10T06:12:31;13.90;99.90
19232;DHT22;9750;48.730;10.294;2023-05-10T06:14:58;13.90;99.90
19232;DHT22;9750;48.730;10.294;2023-05-10T06:17:26;13.90;99.90
19232;DHT22;9750;48.730;10.294;2023-05-10T06:19:53;13.90;99.90
19232;DHT22;9750;48.730;10.294;2023-05-10T06:22:21;13.90;99.90
19232;DHT22;9750;48.730;10.294;2023-05-10T06:24:49;14.00;99.90
19232;DHT22;9750;48.730;10.294;2023-05-10T06:27:16;14.00;99.90
19232;DHT22;9750;48.730;10.294;2023-05-10T06:29:44;14.10;99.90
19232;DHT22;9750;48.730;10.294;2023-05-10T06:32:11;14.00;99.90
19232;DHT22;9750;48.730;10.294;2023-05-10T06:34:38;14.10;99.90
19232;DHT22;9750;48.730;10.294;2023-05-10T06:37:06;14.10;99.90
19232;DHT22;9750;48.730;10.294;2023-05-10T06:39:34;14.10;99.90
19232;DHT22;9750;48.730;10.294;2023-05-10T06:42:02;14.20;99.90
19232;DHT22;9750;48.730;10.294;2023-05-10T06:44:30;14.10;99.90
19232;DHT22;9750;48.730;10.294;2023-05-10T06:46:57;14.10;99.90
19232;DHT22;9750;48.730;10.294;2023-05-10T06:49:24;14.10;99.90
19232;DHT22;9750;48.730;10.294;2023-05-10T06:51:52;14.00;99.90
19232;DHT22;9750;48.730;10.294;2023-05-10T06:54:19;14.00;99.90
19232;DHT22;9750;48.730;10.294;2023-05-10T06:56:48;14.10;99.90
19232;DHT22;9750;48.730;10.294;2023-05-10T06:59:15;14.00;99.90
19232;DHT22;9750;48.730;10.294;2023-05-10T07:01:44;14.00;99.90
19232;DHT22;9750;48.730;10.294;2023-05-10T07:04:12;14.10;99.90
19232;DHT22;9750;48.730;10.294;2023-05-10T07:06:39;14.20;99.90
19232;DHT22;9750;48.730;10.294;2023-05-10T07:09:06;14.30;99.90
19232;DHT22;9750;48.730;10.294;2023-05-10T07:11:34;14.40;99.90
19232;DHT22;9750;48.730;10.294;2023-05-10T07:14:04;14.40;99.70
19232;DHT22;9750;48.730;10.294;2023-05-10T07:16:32;14.30;99.90
19232;DHT22;9750;48.730;10.294;2023-05-10T07:18:59;14.30;99.90
19232;DHT22;9750;48.730;10.294;2023-05-10T07:21:26;14.30;99.90
19232;DHT22;9750;48.730;10.294;2023-05-10T07:23:54;14.30;99.90
19232;DHT22;9750;48.730;10.294;2023-05-10T07:26:21;14.30;99.50
19232;DHT22;9750;48.730;10.294;2023-05-10T07:28:48;14.50;99.40
19232;DHT22;9750;48.730;10.294;2023-05-10T07:31:17;14.60;99.50
19232;DHT22;9750;48.730;10.294;2023-05-10T07:33:44;14.60;99.20
19232;DHT22;9750;48.730;10.294;2023-05-10T07:36:11;14.60;99.10
19232;DHT22;9750;48.730;10.294;2023-05-10T07:38:39;14.70;98.70
19232;DHT22;9750;48.730;10.294;2023-05-10T07:41:06;14.80;99.40
19232;DHT22;9750;48.730;10.294;2023-05-10T07:43:33;14.80;99.00
19232;DHT22;9750;48.730;10.294;2023-05-10T07:46:01;14.70;99.20
19232;DHT22;9750;48.730;10.294;2023-05-10T07:48:29;14.70;98.80
19232;DHT22;9750;48.730;10.294;2023-05-10T07:50:57;14.70;99.20
19232;DHT22;9750;48.730;10.294;2023-05-10T07:53:25;14.70;99.40
19232;DHT22;9750;48.730;10.294;2023-05-10T07:55:55;14.60;98.70
19232;DHT22;9750;48.730;10.294;2023-05-10T07:58:24;14.60;99.00
19232;DHT22;9750;48.730;10.294;2023-05-10T08:00:52;14.60;99.40
19232;DHT22;9750;48.730;10.294;2023-05-10T08:03:19;14.60;99.40
19232;DHT22;9750;48.730;10.294;2023-05-10T08:05:48;14.70;99.20
19232;DHT22;9750;48.730;10.294;2023-05-10T08:08:15;14.90;99.30
19232;DHT22;9750;48.730;10.294;2023-05-10T08:10:43;14.90;98.30
19232;DHT22;9750;48.730;10.294;2023-05-10T08:13:10;15.00;98.70
19232;DHT22;9750;48.730;10.294;2023-05-10T08:15:40;14.90;98.10
19232;DHT22;9750;48.730;10.294;2023-05-10T08:18:12;14.90;99.00
19232;DHT22;9750;48.730;10.294;2023-05-10T08:20:54;14.80;98.30
19232;DHT22;9750;48.730;10.294;2023-05-10T08:23:24;14.80;98.60
19232;DHT22;9750;48.730;10.294;2023-05-10T08:25:57;14.80;98.50
19232;DHT22;9750;48.730;10.294;2023-05-10T08:28:37;14.80;98.90
19232;DHT22;9750;48.730;10.294;2023-05-10T08:31:08;14.90;98.50
19232;DHT22;9750;48.730;10.294;2023-05-10T08:33:36;14.80;98.10
19232;DHT22;9750;48.730;10.294;2023-05-10T08:36:06;14.90;98.50
19232;DHT22;9750;48.730;10.294;2023-05-10T08:38:37;14.90;98.50
19232;DHT22;9750;48.730;10.294;2023-05-10T08:41:10;15.00;98.30
19232;DHT22;9750;48.730;10.294;2023-05-10T08:43:50;15.00;98.30
19232;DHT22;9750;48.730;10.294;2023-05-10T08:47:05;15.20;98.50
19232;DHT22;9750;48.730;10.294;2023-05-10T08:49:48;15.30;98.50
19232;DHT22;9750;48.730;10.294;2023-05-10T08:52:28;15.50;97.10
19232;DHT22;9750;48.730;10.294;2023-05-10T08:55:07;15.60;97.30
19232;DHT22;9750;48.730;10.294;2023-05-10T08:57:45;15.80;97.20
19232;DHT22;9750;48.730;10.294;2023-05-10T09:00:13;15.80;96.70
19232;DHT22;9750;48.730;10.294;2023-05-10T09:02:42;15.70;96.10
19232;DHT22;9750;48.730;10.294;2023-05-10T09:05:12;15.60;96.50
19232;DHT22;9750;48.730;10.294;2023-05-10T09:07:44;15.50;96.30
19232;DHT22;9750;48.730;10.294;2023-05-10T09:10:12;15.40;96.20
19232;DHT22;9750;48.730;10.294;2023-05-10T09:12:50;15.30;96.80
19232;DHT22;9750;48.730;10.294;2023-05-10T09:15:29;15.40;97.20
19232;DHT22;9750;48.730;10.294;2023-05-10T09:18:02;15.50;97.50
19232;DHT22;9750;48.730;10.294;2023-05-10T09:20:51;15.70;98.10
19232;DHT22;9750;48.730;10.294;2023-05-10T09:23:37;15.80;97.60
19232;DHT22;9750;48.730;10.294;2023-05-10T09:26:40;15.80;97.90
19232;DHT22;9750;48.730;10.294;2023-05-10T09:32:43;16.10;96.70
19232;DHT22;9750;48.730;10.294;2023-05-10T09:38:20;16.10;96.00
19232;DHT22;9750;48.730;10.294;2023-05-10T09:40:52;16.20;95.80
19232;DHT22;9750;48.730;10.294;2023-05-10T09:43:22;16.40;95.90
19232;DHT22;9750;48.730;10.294;2023-05-10T09:45:49;16.60;95.40
19232;DHT22;9750;48.730;10.294;2023-05-10T09:48:16;16.80;95.10
19232;DHT22;9750;48.730;10.294;2023-05-10T09:50:43;16.80;94.30
19232;DHT22;9750;48.730;10.294;2023-05-10T09:53:14;16.70;93.30
19232;DHT22;9750;48.730;10.294;2023-05-10T09:55:44;16.60;93.00
19232;DHT22;9750;48.730;10.294;2023-05-10T09:58:13;16.50;92.90
19232;DHT22;9750;48.730;10.294;2023-05-10T10:00:41;16.50;93.10
19232;DHT22;9750;48.730;10.294;2023-05-10T10:03:14;16.50;93.20
19232;DHT22;9750;48.730;10.294;2023-05-10T10:05:42;16.30;92.70
19232;DHT22;9750;48.730;10.294;2023-05-10T10:08:10;16.20;93.00
19232;DHT22;9750;48.730;10.294;2023-05-10T10:10:38;16.00;93.20
19232;DHT22;9750;48.730;10.294;2023-05-10T10:13:14;16.00;93.20
19232;DHT22;9750;48.730;10.294;2023-05-10T10:15:46;16.10;94.30
19232;DHT22;9750;48.730;10.294;2023-05-10T10:18:16;16.20;94.30
19232;DHT22;9750;48.730;10.294;2023-05-10T10:20:49;16.20;94.50
19232;DHT22;9750;48.730;10.294;2023-05-10T10:23:19;16.20;94.20
19232;DHT22;9750;48.730;10.294;2023-05-10T10:25:46;16.30;95.30
19232;DHT22;9750;48.730;10.294;2023-05-10T10:28:22;16.40;95.30
19232;DHT22;9750;48.730;10.294;2023-05-10T10:30:53;16.40;94.90
19232;DHT22;9750;48.730;10.294;2023-05-10T10:33:44;16.30;94.50
19232;DHT22;9750;48.730;10.294;2023-05-10T10:36:18;16.10;94.10
19232;DHT22;9750;48.730;10.294;2023-05-10T10:38:55;16.00;95.00
19232;DHT22;9750;48.730;10.294;2023-05-10T10:41:30;15.90;94.80
19232;DHT22;9750;48.730;10.294;2023-05-10T10:44:26;15.80;95.40
19232;DHT22;9750;48.730;10.294;2023-05-10T10:47:07;15.60;95.80
19232;DHT22;9750;48.730;10.294;2023-05-10T10:49:44;15.50;96.30
19232;DHT22;9750;48.730;10.294;2023-05-10T10:52:25;15.40;95.80
19232;DHT22;9750;48.730;10.294;2023-05-10T10:54:59;15.30;96.50
19232;DHT22;9750;48.730;10.294;2023-05-10T10:57:28;15.30;97.30
19232;DHT22;9750;48.730;10.294;2023-05-10T11:00:23;15.20;97.50
19232;DHT22;9750;48.730;10.294;2023-05-10T11:02:53;15.30;97.60
19232;DHT22;9750;48.730;10.294;2023-05-10T11:05:26;15.40;97.80
19232;DHT22;9750;48.730;10.294;2023-05-10T11:08:02;15.50;97.40
19232;DHT22;9750;48.730;10.294;2023-05-10T11:10:33;15.50;97.40
19232;DHT22;9750;48.730;10.294;2023-05-10T11:13:02;15.50;97.50
19232;DHT22;9750;48.730;10.294;2023-05-10T11:15:30;15.40;97.20
19232;DHT22;9750;48.730;10.294;2023-05-10T11:17:59;15.40;97.00
19232;DHT22;9750;48.730;10.294;2023-05-10T11:20:38;15.30;97.00
19232;DHT22;9750;48.730;10.294;2023-05-10T11:23:13;15.40;97.10
19232;DHT22;9750;48.730;10.294;2023-05-10T11:25:43;15.40;96.80
19232;DHT22;9750;48.730;10.294;2023-05-10T11:31:33;15.60;96.70
19232;DHT22;9750;48.730;10.294;2023-05-10T11:34:02;15.60;96.40
19232;DHT22;9750;48.730;10.294;2023-05-10T11:36:32;15.70;96.60
19232;DHT22;9750;48.730;10.294;2023-05-10T11:39:00;15.80;96.60
19232;DHT22;9750;48.730;10.294;2023-05-10T11:41:29;15.90;96.60
19232;DHT22;9750;48.730;10.294;2023-05-10T11:43:57;16.00;96.10
19232;DHT22;9750;48.730;10.294;2023-05-10T11:46:26;16.00;95.70
19232;DHT22;9750;48.730;10.294;2023-05-10T11:48:57;15.90;95.40
19232;DHT22;9750;48.730;10.294;2023-05-10T11:51:27;15.90;95.30
19232;DHT22;9750;48.730;10.294;2023-05-10T11:53:57;16.00;96.00
19232;DHT22;9750;48.730;10.294;2023-05-10T11:56:25;16.10;95.70
19232;DHT22;9750;48.730;10.294;2023-05-10T11:58:54;16.10;94.80
19232;DHT22;9750;48.730;10.294;2023-05-10T12:01:22;16.30;95.10
19232;DHT22;9750;48.730;10.294;2023-05-10T12:03:50;16.40;95.10
19232;DHT22;9750;48.730;10.294;2023-05-10T12:06:19;16.40;94.30
19232;DHT22;9750;48.730;10.294;2023-05-10T12:08:49;16.30;94.40
19232;DHT22;9750;48.730;10.294;2023-05-10T12:11:26;16.30;94.30
19232;DHT22;9750;48.730;10.294;2023-05-10T12:14:00;16.30;94.40
19232;DHT22;9750;48.730;10.294;2023-05-10T12:16:31;16.30;94.40
19232;DHT22;9750;48.730;10.294;2023-05-10T12:18:59;16.10;93.40
19232;DHT22;9750;48.730;10.294;2023-05-10T12:21:29;16.00;93.30
19232;DHT22;9750;48.730;10.294;2023-05-10T12:24:02;15.90;93.80
19232;DHT22;9750;48.730;10.294;2023-05-10T12:26:30;15.80;93.40
19232;DHT22;9750;48.730;10.294;2023-05-10T12:39:46;15.40;94.20
19232;DHT22;9750;48.730;10.294;2023-05-10T12:42:50;15.50;95.00
19232;DHT22;9750;48.730;10.294;2023-05-10T12:45:28;15.50;95.00
19232;DHT22;9750;48.730;10.294;2023-05-10T13:08:08;15.00;96.90
19232;DHT22;9750;48.730;10.294;2023-05-10T13:11:10;15.00;97.00
19232;DHT22;9750;48.730;10.294;2023-05-10T13:13:47;15.00;97.20
19232;DHT22;9750;48.730;10.294;2023-05-10T13:22:54;15.20;97.40
19232;DHT22;9750;48.730;10.294;2023-05-10T13:25:28;15.20;97.30
19232;DHT22;9750;48.730;10.294;2023-05-10T13:28:12;15.20;97.60
19232;DHT22;9750;48.730;10.294;2023-05-10T13:31:18;15.00;97.70
19232;DHT22;9750;48.730;10.294;2023-05-10T13:44:41;14.10;99.90
19232;DHT22;9750;48.730;10.294;2023-05-10T13:54:25;14.10;99.90
19232;DHT22;9750;48.730;10.294;2023-05-10T13:57:05;14.20;98.70
19232;DHT22;9750;48.730;10.294;2023-05-10T13:59:53;14.20;98.80
19232;DHT22;9750;48.730;10.294;2023-05-10T14:02:38;14.30;98.40
19232;DHT22;9750;48.730;10.294;2023-05-10T14:05:39;14.30;98.70
19232;DHT22;9750;48.730;10.294;2023-05-10T14:08:24;14.30;98.90
19232;DHT22;9750;48.730;10.294;2023-05-10T14:14:28;14.40;98.70
19232;DHT22;9750;48.730;10.294;2023-05-10T14:17:13;14.60;99.10
19232;DHT22;9750;48.730;10.294;2023-05-10T14:20:58;14.70;98.90
19232;DHT22;9750;48.730;10.294;2023-05-10T14:22:55;14.70;98.20
19232;DHT22;9750;48.730;10.294;2023-05-10T14:25:44;14.60;98.00
19232;DHT22;9750;48.730;10.294;2023-05-10T14:31:53;14.60;98.30
19232;DHT22;9750;48.730;10.294;2023-05-10T14:34:38;14.60;97.40
19232;DHT22;9750;48.730;10.294;2023-05-10T14:37:12;14.50;97.70
19232;DHT22;9750;48.730;10.294;2023-05-10T14:40:09;14.50;98.10
19232;DHT22;9750;48.730;10.294;2023-05-10T14:42:41;14.60;98.10
19232;DHT22;9750;48.730;10.294;2023-05-10T14:45:36;14.50;97.90
19232;DHT22;9750;48.730;10.294;2023-05-10T14:48:41;14.60;98.30
19232;DHT22;9750;48.730;10.294;2023-05-10T15:11:30;14.40;97.60
19232;DHT22;9750;48.730;10.294;2023-05-10T15:13:58;14.40;98.00
19232;DHT22;9750;48.730;10.294;2023-05-10T15:16:25;14.40;97.80
19232;DHT22;9750;48.730;10.294;2023-05-10T15:18:52;14.50;98.10
19232;DHT22;9750;48.730;10.294;2023-05-10T15:21:20;14.50;97.70
19232;DHT22;9750;48.730;10.294;2023-05-10T15:23:47;14.50;98.20
19232;DHT22;9750;48.730;10.294;2023-05-10T15:26:14;14.60;98.50
19232;DHT22;9750;48.730;10.294;2023-05-10T15:28:43;14.60;98.30
19232;DHT22;9750;48.730;10.294;2023-05-10T15:31:10;14.60;98.50
19232;DHT22;9750;48.730;10.294;2023-05-10T15:33:38;14.60;98.00
19232;DHT22;9750;48.730;10.294;2023-05-10T15:36:05;14.60;97.00
19232;DHT22;9750;48.730;10.294;2023-05-10T15:38:32;14.60;96.80
19232;DHT22;9750;48.730;10.294;2023-05-10T15:41:00;14.60;96.80
19232;DHT22;9750;48.730;10.294;2023-05-10T15:43:27;14.60;97.10
19232;DHT22;9750;48.730;10.294;2023-05-10T15:45:56;14.60;97.20
19232;DHT22;9750;48.730;10.294;2023-05-10T15:48:23;14.60;97.00
19232;DHT22;9750;48.730;10.294;2023-05-10T15:50:51;14.60;97.50
19232;DHT22;9750;48.730;10.294;2023-05-10T15:53:18;14.60;97.20
19232;DHT22;9750;48.730;10.294;2023-05-10T15:55:45;14.60;97.50
19232;DHT22;9750;48.730;10.294;2023-05-10T15:58:12;14.70;97.60
19232;DHT22;9750;48.730;10.294;2023-05-10T16:00:40;14.60;97.40
19232;DHT22;9750;48.730;10.294;2023-05-10T16:03:09;14.60;96.70
19232;DHT22;9750;48.730;10.294;2023-05-10T16:05:36;14.70;97.50
19232;DHT22;9750;48.730;10.294;2023-05-10T16:08:03;14.60;97.80
19232;DHT22;9750;48.730;10.294;2023-05-10T16:10:31;14.70;97.60
19232;DHT22;9750;48.730;10.294;2023-05-10T16:12:58;14.70;98.00
19232;DHT22;9750;48.730;10.294;2023-05-10T16:15:27;14.70;98.70
19232;DHT22;9750;48.730;10.294;2023-05-10T16:17:54;14.70;98.90
19232;DHT22;9750;48.730;10.294;2023-05-10T16:20:23;14.70;99.00
19232;DHT22;9750;48.730;10.294;2023-05-10T16:22:51;14.70;98.80
19232;DHT22;9750;48.730;10.294;2023-05-10T16:25:18;14.70;98.90
19232;DHT22;9750;48.730;10.294;2023-05-10T16:27:45;14.70;99.40
19232;DHT22;9750;48.730;10.294;2023-05-10T16:30:13;14.70;99.30
19232;DHT22;9750;48.730;10.294;2023-05-10T16:32:40;14.70;99.50
19232;DHT22;9750;48.730;10.294;2023-05-10T16:35:08;14.70;99.90
19232;DHT22;9750;48.730;10.294;2023-05-10T16:37:37;14.70;99.50
19232;DHT22;9750;48.730;10.294;2023-05-10T16:40:05;14.70;99.20
19232;DHT22;9750;48.730;10.294;2023-05-10T16:42:33;14.70;99.50
19232;DHT22;9750;48.730;10.294;2023-05-10T16:45:01;14.70;99.10
19232;DHT22;9750;48.730;10.294;2023-05-10T16:47:32;14.70;99.80
19232;DHT22;9750;48.730;10.294;2023-05-10T16:49:59;14.70;99.60
19232;DHT22;9750;48.730;10.294;2023-05-10T16:52:27;14.70;99.60
19232;DHT22;9750;48.730;10.294;2023-05-10T16:54:56;14.70;99.80
19232;DHT22;9750;48.730;10.294;2023-05-10T16:57:23;14.60;99.90
19232;DHT22;9750;48.730;10.294;2023-05-10T16:59:51;14.60;99.90
19232;DHT22;9750;48.730;10.294;2023-05-10T17:02:18;14.60;99.80
19232;DHT22;9750;48.730;10.294;2023-05-10T17:04:45;14.60;99.90
19232;DHT22;9750;48.730;10.294;2023-05-10T17:07:13;14.60;99.90
19232;DHT22;9750;48.730;10.294;2023-05-10T17:09:41;14.60;99.90
19232;DHT22;9750;48.730;10.294;2023-05-10T17:12:10;14.60;99.90
19232;DHT22;9750;48.730;10.294;2023-05-10T17:14:38;14.60;99.90
19232;DHT22;9750;48.730;10.294;2023-05-10T17:17:05;14.60;99.90
19232;DHT22;9750;48.730;10.294;2023-05-10T17:19:33;14.60;99.90
19232;DHT22;9750;48.730;10.294;2023-05-10T17:22:00;14.50;99.90
19232;DHT22;9750;48.730;10.294;2023-05-10T17:24:27;14.50;99.90
19232;DHT22;9750;48.730;10.294;2023-05-10T17:26:55;14.50;99.90
19232;DHT22;9750;48.730;10.294;2023-05-10T17:29:26;14.50;99.90
19232;DHT22;9750;48.730;10.294;2023-05-10T17:31:54;14.40;99.90
19232;DHT22;9750;48.730;10.294;2023-05-10T17:34:23;14.40;99.90
19232;DHT22;9750;48.730;10.294;2023-05-10T17:36:53;14.40;99.90
19232;DHT22;9750;48.730;10.294;2023-05-10T17:39:21;14.40;99.90
19232;DHT22;9750;48.730;10.294;2023-05-10T17:41:48;14.40;99.90
19232;DHT22;9750;48.730;10.294;2023-05-10T17:44:15;14.40;99.90
19232;DHT22;9750;48.730;10.294;2023-05-10T17:46:45;14.40;99.90
19232;DHT22;9750;48.730;10.294;2023-05-10T17:49:12;14.40;99.90
19232;DHT22;9750;48.730;10.294;2023-05-10T17:51:39;14.30;99.90